Meath Environmental Platform

Observations for Trim Market St

Time AQI Temp °C Hum % Pres Pa CO μg/m³ H₂S μg/m³ NO μg/m³ NO₂ μg/m³ O₃ μg/m³ SO₂ μg/m³ PM1 μg/m³ PM2.5 μg/m³ PM10 μg/m³
Sunday 12 July 2026
17:57 2 27.8 43 63,056 0 10.92 0 10.03 41.73 0 0.71 4.31 4.39
17:54 2 27.9 43 63,388 0 11.39 0 10.24 38.31 0 1.43 4.85 5.17
17:51 2 28 43 63,582 0 12.8 0 11.37 40.9 0 1.43 4.35 5.16
17:50 2 28.1 42 63,697 0 12.77 0 10.75 39.5 0 2.14 5.4 5.95
17:49 2 28.1 42 63,766 0 14.3 0 10.66 41.14 0 1.43 3.83 5.15
17:48 2 28.2 42 63,892 0 13.12 0 10.25 40.65 0 2.14 4.36 4.36
17:47 2 28.2 42 63,993 0 14.35 0 11.17 45.47 0 0.71 4.37 4.81
17:46 2 28.3 42 64,058 0 13.22 0 9.57 43.16 0 1.43 4.38 4.82
17:45 2 28.4 42 64,172 0 13.75 0 10.15 42.08 0 0.71 3.86 5.94
17:44 2 28.4 42 64,258 0 12.73 0 9.76 45.63 0 2.14 5.44 5.94
17:43 2 28.5 42 64,299 0 13.53 0 9.16 42.84 0 0 2.82 3.1
17:42 2 28.6 41 64,323 0 12.78 0 9.24 39.75 0 1.43 3.88 4.26
17:41 2 28.6 41 64,421 0 14.94 0 9.84 42.91 0 1.43 3.88 4.34
17:40 2 28.7 41 64,479 0 15.31 0 10.04 43.88 0 2.14 4.94 6.73
17:39 2 28.8 41 64,523 0 15.15 0 10.34 46 0 1.43 3.89 4.28
17:38 2 28.8 41 64,613 0 15.02 0 9.75 44.03 0 2.14 4.95 5.13
17:31 2 29.4 40 65,052 0 16.06 0 8.43 41.5 0 1.43 3.96 4.35
17:27 2 29.9 39 65,386 0 13.95 0 7.5 43.61 0 1.43 4 4.27
17:26 2 29.9 39 65,439 0 14.91 0 6.61 42.25 0 2.14 4 5.09
17:25 2 30.1 38 65,513 0 17.02 0 8.89 44.53 0 2.14 5.08 5.9